Terminal Aerodrome Forecast
Issued by NWS Charleston, WV

Current Version | Previous Version | Text Only | Print | Product List | Glossary Off
Versions: 1 2 3 4 5 6 7 8 9 10 11 12 13 14 15 16 17 18 19 20 21 22 23 24 25 26 27 28 29 30

935
FTUS41 KRLX 210917 AAB
TAFEKN
TAF AMD
KEKN 210917Z 2109/2206 17005KT P6SM SCT060 WS020/18040KT
     FM211800 24011G21KT P6SM SHRA BKN035
     FM220100 32004KT 4SM SHRA BR BKN015=

USA.gov is the U.S. government's official web portal to all federal, state and local government web resources and services.